createdAt,value
2023-05-13T00:03:28.257Z,99070.17
2023-05-13T00:13:32.202Z,99066.40
2023-05-13T00:23:35.676Z,99067.77
2023-05-13T00:33:42.786Z,99067.54
2023-05-13T00:43:46.422Z,99075.80
2023-05-13T00:53:50.650Z,99085.75
2023-05-13T01:04:01.429Z,99093.34
2023-05-13T01:14:18.549Z,99099.19
2023-05-13T01:24:22.492Z,99110.45
2023-05-13T01:34:27.742Z,99109.78
2023-05-13T01:44:31.681Z,99113.24
2023-05-13T01:54:35.577Z,99109.92
2023-05-13T02:04:39.171Z,99107.60
2023-05-13T02:14:43.276Z,99105.77
2023-05-13T02:24:47.453Z,99096.74
2023-05-13T02:34:51.435Z,99091.95
2023-05-13T02:44:55.258Z,99090.39
2023-05-13T02:54:58.877Z,99094.35
2023-05-13T03:05:03.364Z,99099.00
2023-05-13T03:15:08.807Z,99113.61
2023-05-13T03:25:16.150Z,99120.58
2023-05-13T03:35:19.791Z,99120.23
2023-05-13T03:55:26.281Z,99124.56
2023-05-13T04:05:29.599Z,99129.30
2023-05-13T04:15:36.708Z,99134.79
2023-05-13T04:25:41.876Z,99140.39
2023-05-13T04:35:45.810Z,99150.70
2023-05-13T04:45:49.737Z,99166.36
2023-05-13T04:55:56.765Z,99174.81
2023-05-13T05:06:03.759Z,99181.66
2023-05-13T05:16:08.333Z,99191.05
2023-05-13T05:26:12.559Z,99200.55
2023-05-13T05:36:17.202Z,99201.21
2023-05-13T05:46:20.964Z,99191.04
2023-05-13T05:56:24.786Z,99197.35
2023-05-13T06:06:29.018Z,99208.11
2023-05-13T06:16:32.774Z,99219.24
2023-05-13T06:26:35.778Z,99223.15
2023-05-13T06:36:39.743Z,99227.23
2023-05-13T06:46:43.383Z,99229.25
2023-05-13T06:56:47.054Z,99225.61
2023-05-13T07:06:50.316Z,99228.64
2023-05-13T07:16:54.256Z,99230.64
2023-05-13T07:26:58.326Z,99217.56
2023-05-13T07:37:03.415Z,99218.12
2023-05-13T07:47:10.888Z,99211.05
2023-05-13T07:57:14.647Z,99221.23
2023-05-13T08:07:18.053Z,99212.42
2023-05-13T08:17:22.185Z,99204.96
2023-05-13T08:27:29.993Z,99210.32
2023-05-13T08:37:33.660Z,99205.59
2023-05-13T08:47:40.200Z,99205.35
2023-05-13T08:57:43.412Z,99201.38
2023-05-13T09:07:47.074Z,99210.16
2023-05-13T09:17:52.737Z,99213.30
2023-05-13T09:27:58.450Z,99208.72
2023-05-13T09:38:01.951Z,99210.30
2023-05-13T09:48:08.066Z,99205.82
2023-05-13T09:58:11.330Z,99197.90
2023-05-13T10:08:15.663Z,99196.20
2023-05-13T10:18:20.676Z,99190.02
2023-05-13T10:28:25.962Z,99175.96
2023-05-13T10:38:53.590Z,99164.75
2023-05-13T10:48:59.774Z,99172.38
2023-05-13T10:59:05.889Z,99170.41
2023-05-13T11:09:13.602Z,99172.23
2023-05-13T11:19:21.022Z,99169.20
2023-05-13T11:29:30.096Z,99156.83
2023-05-13T11:39:34.813Z,99152.41
2023-05-13T11:49:38.222Z,99154.09
2023-05-13T11:59:48.180Z,99158.64
2023-05-13T12:09:53.471Z,99157.11
2023-05-13T12:20:10.169Z,99150.04
2023-05-13T12:30:14.812Z,99151.04
2023-05-13T12:40:17.578Z,99157.14
2023-05-13T12:50:25.784Z,99161.77
2023-05-13T13:00:29.334Z,99146.45
2023-05-13T13:10:33.024Z,99144.25
2023-05-13T13:20:37.268Z,99140.81
2023-05-13T13:30:41.081Z,99146.22
2023-05-13T13:40:44.673Z,99138.98
2023-05-13T13:50:49.383Z,99142.45
2023-05-13T14:00:54.443Z,99134.58
2023-05-13T14:10:58.305Z,99148.07
2023-05-13T14:21:05.494Z,99145.69
2023-05-13T14:31:12.874Z,99139.29
2023-05-13T14:41:19.443Z,99136.45
2023-05-13T14:51:23.243Z,99142.27
2023-05-13T15:01:31.298Z,99136.52
2023-05-13T15:11:39.956Z,99131.46
2023-05-13T15:21:43.616Z,99130.85
2023-05-13T15:31:50.322Z,99134.14
2023-05-13T15:41:53.984Z,99136.55
2023-05-13T15:51:58.121Z,99134.84
2023-05-13T16:02:01.928Z,99125.68
2023-05-13T16:12:04.590Z,99123.95
2023-05-13T16:22:26.331Z,99109.19
2023-05-13T16:32:30.582Z,99108.66
2023-05-13T16:42:37.836Z,99115.13
2023-05-13T16:52:41.737Z,99114.30
2023-05-13T17:02:45.585Z,99118.44
2023-05-13T17:12:49.632Z,99118.99
2023-05-13T17:22:53.207Z,99119.84
2023-05-13T17:32:56.793Z,99121.66
2023-05-13T17:43:02.527Z,99114.98
2023-05-13T17:53:06.511Z,99116.69
2023-05-13T18:03:10.143Z,99116.89
2023-05-13T18:13:17.834Z,99116.55
2023-05-13T18:23:21.368Z,99118.96
2023-05-13T18:33:25.038Z,99135.73
2023-05-13T18:43:28.500Z,99154.91
2023-05-13T18:53:32.192Z,99159.55
2023-05-13T19:03:36.603Z,99163.52
2023-05-13T19:23:50.531Z,99166.48
2023-05-13T19:33:54.514Z,99174.47
2023-05-13T19:43:58.470Z,99179.23
2023-05-13T19:54:02.482Z,99186.30
2023-05-13T20:04:09.474Z,99187.23
2023-05-13T20:14:22.463Z,99192.81
2023-05-13T20:24:25.991Z,99188.54
2023-05-13T20:34:30.195Z,99185.54
2023-05-13T20:44:34.065Z,99182.69
2023-05-13T20:54:38.033Z,99180.20
2023-05-13T21:04:41.603Z,99170.26
2023-05-13T21:14:45.559Z,99166.51
2023-05-13T21:24:49.993Z,99171.27
2023-05-13T21:34:56.821Z,99177.35
2023-05-13T21:45:04.493Z,99182.29
2023-05-13T21:55:09.640Z,99178.42
2023-05-13T22:05:12.761Z,99170.86
2023-05-13T22:15:20.476Z,99164.09
2023-05-13T22:25:33.533Z,99161.06
2023-05-13T22:35:39.272Z,99159.23
2023-05-13T22:45:43.094Z,99158.30
2023-05-13T22:55:46.699Z,99162.01
2023-05-13T23:05:51.028Z,99154.06
2023-05-13T23:15:54.820Z,99141.30
2023-05-13T23:25:58.533Z,99131.97
2023-05-13T23:36:02.138Z,99125.98
2023-05-13T23:46:05.932Z,99122.01
2023-05-13T23:56:12.093Z,99110.65
